sensor_id;sensor_type;location;lat;lon;timestamp;P1;durP1;ratioP1;P2;durP2;ratioP2
78931;SDS011;68331;53.362;55.932;2024-02-26T00:00:04;8.05;;;5.68;;
78931;SDS011;68331;53.362;55.932;2024-02-26T00:02:35;8.55;;;4.05;;
78931;SDS011;68331;53.362;55.932;2024-02-26T00:05:04;5.30;;;4.65;;
78931;SDS011;68331;53.362;55.932;2024-02-26T00:09:58;4.97;;;4.35;;
78931;SDS011;68331;53.362;55.932;2024-02-26T00:12:24;8.57;;;5.07;;
78931;SDS011;68331;53.362;55.932;2024-02-26T00:14:50;9.75;;;4.68;;
78931;SDS011;68331;53.362;55.932;2024-02-26T00:17:18;10.90;;;4.53;;
78931;SDS011;68331;53.362;55.932;2024-02-26T00:19:44;8.80;;;4.72;;
78931;SDS011;68331;53.362;55.932;2024-02-26T00:22:10;6.75;;;5.53;;
78931;SDS011;68331;53.362;55.932;2024-02-26T00:24:36;14.00;;;6.68;;
78931;SDS011;68331;53.362;55.932;2024-02-26T00:27:02;7.90;;;4.03;;
78931;SDS011;68331;53.362;55.932;2024-02-26T00:29:28;9.00;;;5.05;;
78931;SDS011;68331;53.362;55.932;2024-02-26T00:31:54;13.10;;;6.22;;
78931;SDS011;68331;53.362;55.932;2024-02-26T00:34:20;9.93;;;4.28;;
78931;SDS011;68331;53.362;55.932;2024-02-26T00:36:46;9.93;;;5.60;;
78931;SDS011;68331;53.362;55.932;2024-02-26T00:39:12;17.65;;;6.13;;
78931;SDS011;68331;53.362;55.932;2024-02-26T00:41:39;9.60;;;5.50;;
78931;SDS011;68331;53.362;55.932;2024-02-26T00:44:06;6.40;;;5.18;;
78931;SDS011;68331;53.362;55.932;2024-02-26T00:46:32;10.25;;;3.97;;
78931;SDS011;68331;53.362;55.932;2024-02-26T00:48:58;11.90;;;5.80;;
78931;SDS011;68331;53.362;55.932;2024-02-26T00:51:24;11.20;;;5.30;;
78931;SDS011;68331;53.362;55.932;2024-02-26T00:53:50;15.13;;;6.32;;
78931;SDS011;68331;53.362;55.932;2024-02-26T00:56:16;11.63;;;4.78;;
78931;SDS011;68331;53.362;55.932;2024-02-26T00:58:42;11.90;;;5.25;;
78931;SDS011;68331;53.362;55.932;2024-02-26T01:01:08;7.65;;;5.20;;
78931;SDS011;68331;53.362;55.932;2024-02-26T01:03:35;9.43;;;5.10;;
78931;SDS011;68331;53.362;55.932;2024-02-26T01:06:01;17.63;;;5.72;;
78931;SDS011;68331;53.362;55.932;2024-02-26T01:08:27;13.43;;;6.45;;
78931;SDS011;68331;53.362;55.932;2024-02-26T01:10:53;12.43;;;7.35;;
78931;SDS011;68331;53.362;55.932;2024-02-26T01:13:19;10.75;;;5.70;;
78931;SDS011;68331;53.362;55.932;2024-02-26T01:15:45;24.10;;;7.50;;
78931;SDS011;68331;53.362;55.932;2024-02-26T01:18:12;10.10;;;5.80;;
78931;SDS011;68331;53.362;55.932;2024-02-26T01:20:38;16.73;;;7.18;;
78931;SDS011;68331;53.362;55.932;2024-02-26T01:23:04;8.88;;;6.00;;
78931;SDS011;68331;53.362;55.932;2024-02-26T01:25:29;14.95;;;6.20;;
78931;SDS011;68331;53.362;55.932;2024-02-26T01:27:55;9.27;;;6.28;;
78931;SDS011;68331;53.362;55.932;2024-02-26T01:30:22;19.92;;;6.28;;
78931;SDS011;68331;53.362;55.932;2024-02-26T01:32:48;14.07;;;7.75;;
78931;SDS011;68331;53.362;55.932;2024-02-26T01:35:14;17.60;;;7.65;;
78931;SDS011;68331;53.362;55.932;2024-02-26T01:37:40;13.85;;;8.73;;
78931;SDS011;68331;53.362;55.932;2024-02-26T01:40:07;14.63;;;8.50;;
78931;SDS011;68331;53.362;55.932;2024-02-26T01:42:35;12.57;;;8.05;;
78931;SDS011;68331;53.362;55.932;2024-02-26T01:45:05;23.98;;;8.57;;
78931;SDS011;68331;53.362;55.932;2024-02-26T01:47:32;13.15;;;6.45;;
78931;SDS011;68331;53.362;55.932;2024-02-26T01:49:59;9.90;;;4.55;;
78931;SDS011;68331;53.362;55.932;2024-02-26T01:52:25;13.25;;;5.95;;
78931;SDS011;68331;53.362;55.932;2024-02-26T01:54:51;13.68;;;7.78;;
78931;SDS011;68331;53.362;55.932;2024-02-26T01:57:17;12.82;;;7.40;;
78931;SDS011;68331;53.362;55.932;2024-02-26T01:59:44;9.13;;;6.07;;
78931;SDS011;68331;53.362;55.932;2024-02-26T02:02:10;17.27;;;7.50;;
78931;SDS011;68331;53.362;55.932;2024-02-26T02:04:38;12.23;;;6.22;;
78931;SDS011;68331;53.362;55.932;2024-02-26T02:07:05;16.08;;;6.18;;
78931;SDS011;68331;53.362;55.932;2024-02-26T02:09:31;7.65;;;4.57;;
78931;SDS011;68331;53.362;55.932;2024-02-26T02:11:58;8.63;;;5.70;;
78931;SDS011;68331;53.362;55.932;2024-02-26T02:14:24;10.90;;;7.13;;
78931;SDS011;68331;53.362;55.932;2024-02-26T02:16:51;9.60;;;8.73;;
78931;SDS011;68331;53.362;55.932;2024-02-26T02:19:17;17.77;;;10.43;;
78931;SDS011;68331;53.362;55.932;2024-02-26T02:21:43;7.65;;;5.82;;
78931;SDS011;68331;53.362;55.932;2024-02-26T02:24:09;24.05;;;6.45;;
78931;SDS011;68331;53.362;55.932;2024-02-26T02:26:36;11.05;;;6.32;;
78931;SDS011;68331;53.362;55.932;2024-02-26T02:29:02;17.30;;;6.13;;
78931;SDS011;68331;53.362;55.932;2024-02-26T02:31:29;8.43;;;5.88;;
78931;SDS011;68331;53.362;55.932;2024-02-26T02:33:55;10.85;;;5.72;;
78931;SDS011;68331;53.362;55.932;2024-02-26T02:36:22;9.13;;;7.78;;
78931;SDS011;68331;53.362;55.932;2024-02-26T02:38:48;8.85;;;6.55;;
78931;SDS011;68331;53.362;55.932;2024-02-26T02:41:15;18.80;;;7.20;;
78931;SDS011;68331;53.362;55.932;2024-02-26T02:43:42;15.88;;;7.03;;
78931;SDS011;68331;53.362;55.932;2024-02-26T02:46:08;12.73;;;8.07;;
78931;SDS011;68331;53.362;55.932;2024-02-26T02:48:34;15.23;;;6.53;;
78931;SDS011;68331;53.362;55.932;2024-02-26T02:50:59;17.00;;;6.38;;
78931;SDS011;68331;53.362;55.932;2024-02-26T02:53:25;10.50;;;7.28;;
78931;SDS011;68331;53.362;55.932;2024-02-26T02:55:51;8.68;;;7.45;;
78931;SDS011;68331;53.362;55.932;2024-02-26T02:58:17;9.73;;;6.57;;
78931;SDS011;68331;53.362;55.932;2024-02-26T03:00:44;22.92;;;10.20;;
78931;SDS011;68331;53.362;55.932;2024-02-26T03:03:09;18.20;;;11.07;;
78931;SDS011;68331;53.362;55.932;2024-02-26T03:05:35;23.80;;;10.77;;
78931;SDS011;68331;53.362;55.932;2024-02-26T03:08:01;19.42;;;9.63;;
78931;SDS011;68331;53.362;55.932;2024-02-26T03:10:27;23.80;;;10.38;;
78931;SDS011;68331;53.362;55.932;2024-02-26T03:12:53;23.52;;;11.60;;
78931;SDS011;68331;53.362;55.932;2024-02-26T03:15:19;29.52;;;10.88;;
78931;SDS011;68331;53.362;55.932;2024-02-26T03:17:45;13.57;;;7.18;;
78931;SDS011;68331;53.362;55.932;2024-02-26T03:20:11;13.65;;;7.40;;
78931;SDS011;68331;53.362;55.932;2024-02-26T03:22:38;20.15;;;7.97;;
78931;SDS011;68331;53.362;55.932;2024-02-26T03:25:05;11.57;;;8.50;;
78931;SDS011;68331;53.362;55.932;2024-02-26T03:27:32;14.45;;;8.43;;
78931;SDS011;68331;53.362;55.932;2024-02-26T03:29:58;24.27;;;8.90;;
78931;SDS011;68331;53.362;55.932;2024-02-26T03:32:24;14.88;;;8.82;;
78931;SDS011;68331;53.362;55.932;2024-02-26T03:34:50;26.10;;;12.02;;
78931;SDS011;68331;53.362;55.932;2024-02-26T03:37:19;21.60;;;11.60;;
78931;SDS011;68331;53.362;55.932;2024-02-26T03:39:45;21.13;;;10.68;;
78931;SDS011;68331;53.362;55.932;2024-02-26T03:42:12;24.63;;;12.80;;
78931;SDS011;68331;53.362;55.932;2024-02-26T03:44:38;28.13;;;11.95;;
78931;SDS011;68331;53.362;55.932;2024-02-26T03:47:04;25.92;;;12.23;;
78931;SDS011;68331;53.362;55.932;2024-02-26T03:49:30;27.75;;;12.73;;
78931;SDS011;68331;53.362;55.932;2024-02-26T03:51:56;20.38;;;11.80;;
78931;SDS011;68331;53.362;55.932;2024-02-26T03:54:22;21.75;;;11.45;;
78931;SDS011;68331;53.362;55.932;2024-02-26T03:56:47;29.33;;;13.98;;
78931;SDS011;68331;53.362;55.932;2024-02-26T03:59:14;27.98;;;12.57;;
78931;SDS011;68331;53.362;55.932;2024-02-26T04:01:44;28.10;;;11.68;;
78931;SDS011;68331;53.362;55.932;2024-02-26T04:04:12;23.77;;;12.32;;
78931;SDS011;68331;53.362;55.932;2024-02-26T04:06:38;25.10;;;14.38;;
78931;SDS011;68331;53.362;55.932;2024-02-26T04:09:04;28.42;;;12.82;;
78931;SDS011;68331;53.362;55.932;2024-02-26T04:11:30;27.23;;;12.70;;
78931;SDS011;68331;53.362;55.932;2024-02-26T04:13:56;26.00;;;12.48;;
78931;SDS011;68331;53.362;55.932;2024-02-26T04:16:22;23.85;;;13.80;;
78931;SDS011;68331;53.362;55.932;2024-02-26T04:18:48;23.45;;;13.05;;
78931;SDS011;68331;53.362;55.932;2024-02-26T04:21:14;20.83;;;11.02;;
78931;SDS011;68331;53.362;55.932;2024-02-26T04:23:40;35.40;;;15.00;;
78931;SDS011;68331;53.362;55.932;2024-02-26T04:26:06;30.33;;;13.68;;
78931;SDS011;68331;53.362;55.932;2024-02-26T04:28:32;33.90;;;13.82;;
78931;SDS011;68331;53.362;55.932;2024-02-26T04:30:58;26.63;;;13.05;;
78931;SDS011;68331;53.362;55.932;2024-02-26T04:33:24;30.25;;;13.02;;
78931;SDS011;68331;53.362;55.932;2024-02-26T04:35:50;35.72;;;13.80;;
78931;SDS011;68331;53.362;55.932;2024-02-26T04:38:16;29.05;;;13.05;;
78931;SDS011;68331;53.362;55.932;2024-02-26T04:40:42;21.30;;;12.05;;
78931;SDS011;68331;53.362;55.932;2024-02-26T04:43:08;37.30;;;14.52;;
78931;SDS011;68331;53.362;55.932;2024-02-26T04:45:34;25.58;;;14.88;;
78931;SDS011;68331;53.362;55.932;2024-02-26T04:48:01;44.47;;;13.82;;
78931;SDS011;68331;53.362;55.932;2024-02-26T04:50:27;24.73;;;12.57;;
78931;SDS011;68331;53.362;55.932;2024-02-26T04:52:53;27.98;;;13.57;;
78931;SDS011;68331;53.362;55.932;2024-02-26T04:55:19;26.48;;;12.57;;
78931;SDS011;68331;53.362;55.932;2024-02-26T04:57:45;33.60;;;13.40;;
78931;SDS011;68331;53.362;55.932;2024-02-26T05:00:12;47.53;;;18.30;;
78931;SDS011;68331;53.362;55.932;2024-02-26T05:02:38;32.65;;;12.20;;
78931;SDS011;68331;53.362;55.932;2024-02-26T05:05:05;27.60;;;12.02;;
78931;SDS011;68331;53.362;55.932;2024-02-26T05:07:32;30.70;;;13.38;;
78931;SDS011;68331;53.362;55.932;2024-02-26T05:09:58;40.05;;;14.30;;
78931;SDS011;68331;53.362;55.932;2024-02-26T05:12:24;30.35;;;14.98;;
78931;SDS011;68331;53.362;55.932;2024-02-26T05:14:50;25.83;;;13.45;;
78931;SDS011;68331;53.362;55.932;2024-02-26T05:17:16;27.90;;;14.90;;
78931;SDS011;68331;53.362;55.932;2024-02-26T05:19:42;32.40;;;14.30;;
78931;SDS011;68331;53.362;55.932;2024-02-26T05:22:08;41.38;;;15.98;;
78931;SDS011;68331;53.362;55.932;2024-02-26T05:24:34;34.90;;;18.00;;
78931;SDS011;68331;53.362;55.932;2024-02-26T05:27:03;33.38;;;15.30;;
78931;SDS011;68331;53.362;55.932;2024-02-26T05:29:29;31.67;;;16.20;;
78931;SDS011;68331;53.362;55.932;2024-02-26T05:31:55;36.70;;;15.50;;
78931;SDS011;68331;53.362;55.932;2024-02-26T05:34:21;30.77;;;15.98;;
78931;SDS011;68331;53.362;55.932;2024-02-26T05:36:47;29.30;;;16.77;;
78931;SDS011;68331;53.362;55.932;2024-02-26T05:39:13;37.20;;;18.77;;
78931;SDS011;68331;53.362;55.932;2024-02-26T05:41:39;37.88;;;19.55;;
78931;SDS011;68331;53.362;55.932;2024-02-26T05:44:07;41.25;;;18.63;;
78931;SDS011;68331;53.362;55.932;2024-02-26T05:46:35;47.17;;;19.83;;
78931;SDS011;68331;53.362;55.932;2024-02-26T05:49:01;46.30;;;20.17;;
78931;SDS011;68331;53.362;55.932;2024-02-26T05:51:28;36.42;;;19.73;;
78931;SDS011;68331;53.362;55.932;2024-02-26T05:53:54;40.92;;;19.70;;
78931;SDS011;68331;53.362;55.932;2024-02-26T05:56:21;36.17;;;19.13;;
78931;SDS011;68331;53.362;55.932;2024-02-26T05:58:47;46.65;;;19.00;;
78931;SDS011;68331;53.362;55.932;2024-02-26T06:01:15;42.75;;;20.58;;
78931;SDS011;68331;53.362;55.932;2024-02-26T06:03:42;49.72;;;21.52;;
78931;SDS011;68331;53.362;55.932;2024-02-26T06:06:09;49.58;;;21.10;;
78931;SDS011;68331;53.362;55.932;2024-02-26T06:08:36;48.40;;;21.88;;
78931;SDS011;68331;53.362;55.932;2024-02-26T06:11:08;47.20;;;25.23;;
78931;SDS011;68331;53.362;55.932;2024-02-26T06:13:34;45.63;;;22.75;;
78931;SDS011;68331;53.362;55.932;2024-02-26T06:16:01;49.85;;;22.60;;
78931;SDS011;68331;53.362;55.932;2024-02-26T06:18:27;47.10;;;25.05;;
78931;SDS011;68331;53.362;55.932;2024-02-26T06:20:54;47.15;;;26.65;;
78931;SDS011;68331;53.362;55.932;2024-02-26T06:23:19;59.28;;;27.80;;
78931;SDS011;68331;53.362;55.932;2024-02-26T06:25:45;55.67;;;30.23;;
78931;SDS011;68331;53.362;55.932;2024-02-26T06:28:13;61.00;;;30.27;;
78931;SDS011;68331;53.362;55.932;2024-02-26T06:30:39;60.28;;;30.98;;
78931;SDS011;68331;53.362;55.932;2024-02-26T06:33:05;55.95;;;34.00;;
78931;SDS011;68331;53.362;55.932;2024-02-26T06:35:31;57.53;;;32.90;;
78931;SDS011;68331;53.362;55.932;2024-02-26T06:37:58;46.08;;;28.13;;
78931;SDS011;68331;53.362;55.932;2024-02-26T06:40:24;51.15;;;28.70;;
78931;SDS011;68331;53.362;55.932;2024-02-26T06:42:50;63.47;;;29.95;;
78931;SDS011;68331;53.362;55.932;2024-02-26T06:45:17;60.53;;;33.33;;
78931;SDS011;68331;53.362;55.932;2024-02-26T06:47:45;59.80;;;30.95;;
78931;SDS011;68331;53.362;55.932;2024-02-26T06:50:11;62.88;;;34.60;;
78931;SDS011;68331;53.362;55.932;2024-02-26T06:52:39;56.95;;;31.55;;
78931;SDS011;68331;53.362;55.932;2024-02-26T06:55:05;57.38;;;31.73;;
78931;SDS011;68331;53.362;55.932;2024-02-26T06:57:34;60.97;;;33.28;;
78931;SDS011;68331;53.362;55.932;2024-02-26T07:00:00;59.55;;;34.08;;
78931;SDS011;68331;53.362;55.932;2024-02-26T07:02:31;53.38;;;30.45;;
78931;SDS011;68331;53.362;55.932;2024-02-26T07:04:57;61.83;;;34.88;;
78931;SDS011;68331;53.362;55.932;2024-02-26T07:07:24;63.15;;;34.35;;
78931;SDS011;68331;53.362;55.932;2024-02-26T07:09:51;58.40;;;34.95;;
78931;SDS011;68331;53.362;55.932;2024-02-26T07:12:17;71.28;;;37.85;;
78931;SDS011;68331;53.362;55.932;2024-02-26T07:14:45;62.22;;;36.13;;
78931;SDS011;68331;53.362;55.932;2024-02-26T07:17:11;76.97;;;42.00;;
78931;SDS011;68331;53.362;55.932;2024-02-26T07:19:37;69.00;;;42.25;;
78931;SDS011;68331;53.362;55.932;2024-02-26T07:22:03;86.88;;;50.65;;
78931;SDS011;68331;53.362;55.932;2024-02-26T07:24:29;92.13;;;52.78;;
78931;SDS011;68331;53.362;55.932;2024-02-26T07:26:55;89.60;;;54.10;;
78931;SDS011;68331;53.362;55.932;2024-02-26T07:29:21;97.85;;;54.53;;
78931;SDS011;68331;53.362;55.932;2024-02-26T07:31:47;98.13;;;55.53;;
78931;SDS011;68331;53.362;55.932;2024-02-26T07:34:13;100.18;;;55.08;;
78931;SDS011;68331;53.362;55.932;2024-02-26T07:36:39;90.82;;;51.85;;
78931;SDS011;68331;53.362;55.932;2024-02-26T07:39:05;77.82;;;46.65;;
78931;SDS011;68331;53.362;55.932;2024-02-26T07:41:31;75.60;;;42.15;;
78931;SDS011;68331;53.362;55.932;2024-02-26T07:43:57;88.18;;;47.85;;
78931;SDS011;68331;53.362;55.932;2024-02-26T07:46:23;73.97;;;40.47;;
78931;SDS011;68331;53.362;55.932;2024-02-26T07:48:49;81.95;;;38.60;;
78931;SDS011;68331;53.362;55.932;2024-02-26T07:51:15;79.13;;;40.20;;
78931;SDS011;68331;53.362;55.932;2024-02-26T07:53:42;71.95;;;36.45;;
78931;SDS011;68331;53.362;55.932;2024-02-26T07:56:09;69.97;;;38.90;;
78931;SDS011;68331;53.362;55.932;2024-02-26T07:58:35;83.45;;;37.33;;
78931;SDS011;68331;53.362;55.932;2024-02-26T08:01:01;81.75;;;36.75;;
78931;SDS011;68331;53.362;55.932;2024-02-26T08:03:27;75.53;;;34.83;;
78931;SDS011;68331;53.362;55.932;2024-02-26T08:05:53;72.18;;;34.08;;
78931;SDS011;68331;53.362;55.932;2024-02-26T08:08:20;75.05;;;34.05;;
78931;SDS011;68331;53.362;55.932;2024-02-26T08:10:46;70.57;;;31.80;;
78931;SDS011;68331;53.362;55.932;2024-02-26T08:13:12;63.72;;;32.25;;
78931;SDS011;68331;53.362;55.932;2024-02-26T08:15:38;61.67;;;29.75;;
78931;SDS011;68331;53.362;55.932;2024-02-26T08:18:04;56.78;;;29.33;;
78931;SDS011;68331;53.362;55.932;2024-02-26T08:20:30;52.47;;;27.10;;
78931;SDS011;68331;53.362;55.932;2024-02-26T08:22:57;53.67;;;24.17;;
78931;SDS011;68331;53.362;55.932;2024-02-26T08:25:23;47.33;;;23.85;;
78931;SDS011;68331;53.362;55.932;2024-02-26T08:27:49;47.80;;;22.85;;
78931;SDS011;68331;53.362;55.932;2024-02-26T08:30:16;57.67;;;21.67;;
78931;SDS011;68331;53.362;55.932;2024-02-26T08:32:43;38.95;;;19.35;;
78931;SDS011;68331;53.362;55.932;2024-02-26T08:35:09;31.38;;;16.02;;
78931;SDS011;68331;53.362;55.932;2024-02-26T08:37:35;31.85;;;15.70;;
78931;SDS011;68331;53.362;55.932;2024-02-26T08:40:02;32.53;;;16.67;;
78931;SDS011;68331;53.362;55.932;2024-02-26T08:42:29;30.17;;;12.80;;
78931;SDS011;68331;53.362;55.932;2024-02-26T08:44:55;24.25;;;12.65;;
78931;SDS011;68331;53.362;55.932;2024-02-26T08:47:21;24.52;;;12.18;;
78931;SDS011;68331;53.362;55.932;2024-02-26T08:49:48;19.90;;;10.55;;
78931;SDS011;68331;53.362;55.932;2024-02-26T08:52:14;21.95;;;9.68;;
78931;SDS011;68331;53.362;55.932;2024-02-26T08:54:41;23.08;;;10.43;;
78931;SDS011;68331;53.362;55.932;2024-02-26T08:57:06;18.17;;;9.05;;
78931;SDS011;68331;53.362;55.932;2024-02-26T08:59:32;15.73;;;6.97;;
78931;SDS011;68331;53.362;55.932;2024-02-26T09:01:59;13.90;;;6.15;;
78931;SDS011;68331;53.362;55.932;2024-02-26T09:04:25;13.45;;;6.15;;
78931;SDS011;68331;53.362;55.932;2024-02-26T09:06:53;8.32;;;6.53;;
78931;SDS011;68331;53.362;55.932;2024-02-26T09:09:19;9.68;;;5.78;;
78931;SDS011;68331;53.362;55.932;2024-02-26T09:11:48;9.43;;;5.55;;
78931;SDS011;68331;53.362;55.932;2024-02-26T09:14:17;9.10;;;5.93;;
78931;SDS011;68331;53.362;55.932;2024-02-26T09:16:43;8.48;;;4.68;;
78931;SDS011;68331;53.362;55.932;2024-02-26T09:19:09;11.07;;;5.93;;
78931;SDS011;68331;53.362;55.932;2024-02-26T09:21:35;14.43;;;6.38;;
78931;SDS011;68331;53.362;55.932;2024-02-26T09:24:01;17.50;;;5.65;;
78931;SDS011;68331;53.362;55.932;2024-02-26T09:26:27;11.27;;;5.18;;
78931;SDS011;68331;53.362;55.932;2024-02-26T09:28:53;10.35;;;5.32;;
78931;SDS011;68331;53.362;55.932;2024-02-26T09:31:19;10.77;;;5.68;;
78931;SDS011;68331;53.362;55.932;2024-02-26T09:33:45;9.80;;;5.95;;
78931;SDS011;68331;53.362;55.932;2024-02-26T09:36:11;11.50;;;5.55;;
78931;SDS011;68331;53.362;55.932;2024-02-26T09:38:37;13.43;;;5.65;;
78931;SDS011;68331;53.362;55.932;2024-02-26T09:41:05;9.68;;;4.70;;
78931;SDS011;68331;53.362;55.932;2024-02-26T09:43:34;12.25;;;5.68;;
78931;SDS011;68331;53.362;55.932;2024-02-26T09:46:05;11.02;;;5.82;;
78931;SDS011;68331;53.362;55.932;2024-02-26T09:48:31;11.95;;;5.97;;
78931;SDS011;68331;53.362;55.932;2024-02-26T09:50:58;11.10;;;5.95;;
78931;SDS011;68331;53.362;55.932;2024-02-26T09:53:24;11.60;;;5.25;;
78931;SDS011;68331;53.362;55.932;2024-02-26T09:55:50;9.73;;;5.50;;
78931;SDS011;68331;53.362;55.932;2024-02-26T09:58:16;11.30;;;6.13;;
78931;SDS011;68331;53.362;55.932;2024-02-26T10:00:46;9.45;;;5.90;;
78931;SDS011;68331;53.362;55.932;2024-02-26T10:03:17;16.42;;;8.10;;
78931;SDS011;68331;53.362;55.932;2024-02-26T10:05:47;14.43;;;7.45;;
78931;SDS011;68331;53.362;55.932;2024-02-26T10:08:15;16.55;;;7.05;;
78931;SDS011;68331;53.362;55.932;2024-02-26T10:10:44;15.10;;;6.93;;
78931;SDS011;68331;53.362;55.932;2024-02-26T10:13:10;13.25;;;7.07;;
78931;SDS011;68331;53.362;55.932;2024-02-26T10:15:37;14.32;;;7.38;;
78931;SDS011;68331;53.362;55.932;2024-02-26T10:18:04;13.82;;;7.68;;
78931;SDS011;68331;53.362;55.932;2024-02-26T10:20:33;23.52;;;9.57;;
78931;SDS011;68331;53.362;55.932;2024-02-26T10:23:02;31.73;;;10.68;;
78931;SDS011;68331;53.362;55.932;2024-02-26T10:25:30;29.15;;;11.73;;
78931;SDS011;68331;53.362;55.932;2024-02-26T10:28:00;26.52;;;11.90;;
78931;SDS011;68331;53.362;55.932;2024-02-26T10:30:30;24.92;;;9.70;;
78931;SDS011;68331;53.362;55.932;2024-02-26T10:32:56;20.73;;;8.70;;
78931;SDS011;68331;53.362;55.932;2024-02-26T10:35:23;16.08;;;8.07;;
78931;SDS011;68331;53.362;55.932;2024-02-26T10:37:50;18.20;;;8.60;;
78931;SDS011;68331;53.362;55.932;2024-02-26T10:40:16;16.30;;;8.35;;
78931;SDS011;68331;53.362;55.932;2024-02-26T10:42:43;17.20;;;7.80;;
78931;SDS011;68331;53.362;55.932;2024-02-26T10:45:11;20.80;;;7.63;;
78931;SDS011;68331;53.362;55.932;2024-02-26T10:47:37;15.63;;;7.47;;
78931;SDS011;68331;53.362;55.932;2024-02-26T10:50:04;12.75;;;6.05;;
78931;SDS011;68331;53.362;55.932;2024-02-26T10:52:32;15.07;;;7.63;;
78931;SDS011;68331;53.362;55.932;2024-02-26T10:55:02;17.60;;;8.27;;
78931;SDS011;68331;53.362;55.932;2024-02-26T10:57:32;12.80;;;7.40;;
78931;SDS011;68331;53.362;55.932;2024-02-26T11:00:02;16.50;;;6.65;;
78931;SDS011;68331;53.362;55.932;2024-02-26T11:02:33;10.60;;;5.82;;
78931;SDS011;68331;53.362;55.932;2024-02-26T11:05:01;14.55;;;8.15;;
78931;SDS011;68331;53.362;55.932;2024-02-26T11:07:30;15.02;;;6.63;;
78931;SDS011;68331;53.362;55.932;2024-02-26T11:09:59;16.05;;;7.38;;
78931;SDS011;68331;53.362;55.932;2024-02-26T11:12:27;12.95;;;7.25;;
78931;SDS011;68331;53.362;55.932;2024-02-26T11:14:55;12.70;;;6.03;;
78931;SDS011;68331;53.362;55.932;2024-02-26T11:17:26;12.65;;;6.55;;
78931;SDS011;68331;53.362;55.932;2024-02-26T11:19:57;8.75;;;5.40;;
78931;SDS011;68331;53.362;55.932;2024-02-26T11:22:24;14.65;;;5.90;;
78931;SDS011;68331;53.362;55.932;2024-02-26T11:24:55;14.20;;;6.45;;
78931;SDS011;68331;53.362;55.932;2024-02-26T11:27:42;9.57;;;5.60;;
78931;SDS011;68331;53.362;55.932;2024-02-26T11:30:11;14.20;;;7.03;;
78931;SDS011;68331;53.362;55.932;2024-02-26T11:32:39;14.18;;;7.25;;
78931;SDS011;68331;53.362;55.932;2024-02-26T11:35:05;15.52;;;7.85;;
78931;SDS011;68331;53.362;55.932;2024-02-26T11:37:33;13.27;;;7.63;;
78931;SDS011;68331;53.362;55.932;2024-02-26T11:39:59;11.43;;;4.82;;
78931;SDS011;68331;53.362;55.932;2024-02-26T11:42:29;11.82;;;5.60;;
78931;SDS011;68331;53.362;55.932;2024-02-26T11:44:56;14.70;;;6.68;;
78931;SDS011;68331;53.362;55.932;2024-02-26T11:47:27;14.05;;;9.05;;
78931;SDS011;68331;53.362;55.932;2024-02-26T11:49:53;22.15;;;10.20;;
78931;SDS011;68331;53.362;55.932;2024-02-26T11:52:19;15.35;;;7.55;;
78931;SDS011;68331;53.362;55.932;2024-02-26T12:02:44;13.57;;;6.65;;
78931;SDS011;68331;53.362;55.932;2024-02-26T12:05:23;9.48;;;6.63;;
78931;SDS011;68331;53.362;55.932;2024-02-26T12:07:52;11.38;;;6.18;;
78931;SDS011;68331;53.362;55.932;2024-02-26T12:10:27;13.85;;;6.63;;
78931;SDS011;68331;53.362;55.932;2024-02-26T12:12:55;10.93;;;5.88;;
78931;SDS011;68331;53.362;55.932;2024-02-26T12:15:30;11.82;;;6.53;;
78931;SDS011;68331;53.362;55.932;2024-02-26T12:17:58;12.07;;;7.30;;
78931;SDS011;68331;53.362;55.932;2024-02-26T12:20:25;19.25;;;7.22;;
78931;SDS011;68331;53.362;55.932;2024-02-26T12:22:51;17.50;;;8.20;;
78931;SDS011;68331;53.362;55.932;2024-02-26T12:25:22;14.13;;;8.60;;
78931;SDS011;68331;53.362;55.932;2024-02-26T12:27:50;16.83;;;7.85;;
78931;SDS011;68331;53.362;55.932;2024-02-26T12:30:16;21.05;;;10.15;;
78931;SDS011;68331;53.362;55.932;2024-02-26T12:32:43;24.05;;;11.52;;
78931;SDS011;68331;53.362;55.932;2024-02-26T12:35:09;22.80;;;11.13;;
78931;SDS011;68331;53.362;55.932;2024-02-26T12:37:35;25.35;;;12.43;;
78931;SDS011;68331;53.362;55.932;2024-02-26T12:40:04;26.75;;;11.63;;
78931;SDS011;68331;53.362;55.932;2024-02-26T12:42:33;33.97;;;13.90;;
78931;SDS011;68331;53.362;55.932;2024-02-26T12:45:05;27.65;;;13.80;;
78931;SDS011;68331;53.362;55.932;2024-02-26T12:47:36;33.65;;;14.23;;
78931;SDS011;68331;53.362;55.932;2024-02-26T12:52:32;25.50;;;10.70;;
78931;SDS011;68331;53.362;55.932;2024-02-26T12:55:00;18.25;;;9.45;;
78931;SDS011;68331;53.362;55.932;2024-02-26T12:57:32;23.45;;;9.95;;
78931;SDS011;68331;53.362;55.932;2024-02-26T12:59:59;24.67;;;11.55;;
78931;SDS011;68331;53.362;55.932;2024-02-26T13:02:27;27.23;;;11.98;;
78931;SDS011;68331;53.362;55.932;2024-02-26T13:04:54;31.60;;;13.77;;
78931;SDS011;68331;53.362;55.932;2024-02-26T13:07:20;24.70;;;11.85;;
78931;SDS011;68331;53.362;55.932;2024-02-26T13:09:46;33.67;;;12.68;;
78931;SDS011;68331;53.362;55.932;2024-02-26T13:12:12;21.33;;;11.07;;
78931;SDS011;68331;53.362;55.932;2024-02-26T13:14:39;28.33;;;10.60;;
78931;SDS011;68331;53.362;55.932;2024-02-26T13:17:05;18.48;;;8.18;;
78931;SDS011;68331;53.362;55.932;2024-02-26T13:19:32;15.68;;;8.90;;
78931;SDS011;68331;53.362;55.932;2024-02-26T13:22:05;14.95;;;7.68;;
78931;SDS011;68331;53.362;55.932;2024-02-26T13:24:33;19.17;;;9.70;;
78931;SDS011;68331;53.362;55.932;2024-02-26T13:26:59;17.65;;;7.75;;
78931;SDS011;68331;53.362;55.932;2024-02-26T13:29:29;15.23;;;7.75;;
78931;SDS011;68331;53.362;55.932;2024-02-26T13:31:57;16.88;;;6.68;;
78931;SDS011;68331;53.362;55.932;2024-02-26T13:36:53;17.40;;;7.25;;
78931;SDS011;68331;53.362;55.932;2024-02-26T13:39:23;16.13;;;7.93;;
78931;SDS011;68331;53.362;55.932;2024-02-26T13:41:51;16.73;;;8.52;;
78931;SDS011;68331;53.362;55.932;2024-02-26T13:44:17;31.92;;;9.15;;
78931;SDS011;68331;53.362;55.932;2024-02-26T13:46:45;24.60;;;8.35;;
78931;SDS011;68331;53.362;55.932;2024-02-26T13:49:11;24.88;;;10.48;;
78931;SDS011;68331;53.362;55.932;2024-02-26T13:51:38;19.92;;;7.85;;
78931;SDS011;68331;53.362;55.932;2024-02-26T13:54:07;15.50;;;8.07;;
78931;SDS011;68331;53.362;55.932;2024-02-26T13:56:33;13.75;;;7.53;;
78931;SDS011;68331;53.362;55.932;2024-02-26T13:58:59;17.30;;;6.68;;
78931;SDS011;68331;53.362;55.932;2024-02-26T14:01:25;12.13;;;7.00;;
78931;SDS011;68331;53.362;55.932;2024-02-26T14:03:51;11.88;;;8.10;;
78931;SDS011;68331;53.362;55.932;2024-02-26T14:06:20;16.05;;;7.70;;
78931;SDS011;68331;53.362;55.932;2024-02-26T14:08:46;15.02;;;6.97;;
78931;SDS011;68331;53.362;55.932;2024-02-26T14:11:12;12.45;;;6.35;;
78931;SDS011;68331;53.362;55.932;2024-02-26T14:13:39;8.10;;;6.22;;
78931;SDS011;68331;53.362;55.932;2024-02-26T14:16:05;10.65;;;5.65;;
78931;SDS011;68331;53.362;55.932;2024-02-26T14:18:32;8.68;;;5.75;;
78931;SDS011;68331;53.362;55.932;2024-02-26T14:20:58;12.10;;;5.38;;
78931;SDS011;68331;53.362;55.932;2024-02-26T14:23:24;11.38;;;5.63;;
78931;SDS011;68331;53.362;55.932;2024-02-26T14:25:50;8.90;;;5.45;;
78931;SDS011;68331;53.362;55.932;2024-02-26T14:28:16;7.38;;;5.55;;
78931;SDS011;68331;53.362;55.932;2024-02-26T14:30:42;7.47;;;4.85;;